createdAt,value
2022-07-28T00:00:41.979Z,49.51
2022-07-28T00:03:08.493Z,49.87
2022-07-28T00:05:35.045Z,49.65
2022-07-28T00:08:01.618Z,49.87
2022-07-28T00:10:28.195Z,49.63
2022-07-28T00:12:54.758Z,49.84
2022-07-28T00:15:21.191Z,49.99
2022-07-28T00:17:47.631Z,49.80
2022-07-28T00:20:14.221Z,50.00
2022-07-28T00:22:44.518Z,50.25
2022-07-28T00:25:11.556Z,50.15
2022-07-28T00:27:38.455Z,50.22
2022-07-28T00:30:06.657Z,50.10
2022-07-28T00:32:33.775Z,50.17
2022-07-28T00:35:00.552Z,50.25
2022-07-28T00:37:28.950Z,50.37
2022-07-28T00:39:56.014Z,50.24
2022-07-28T00:42:22.637Z,50.39
2022-07-28T00:44:49.169Z,50.58
2022-07-28T00:47:15.692Z,50.62
2022-07-28T00:49:42.281Z,50.75
2022-07-28T00:52:09.510Z,50.93
2022-07-28T00:54:36.763Z,50.77
2022-07-28T00:57:03.247Z,51.02
2022-07-28T00:59:30.768Z,50.94
2022-07-28T01:02:00.821Z,50.61
2022-07-28T01:04:27.514Z,51.11
2022-07-28T01:06:58.220Z,51.24
2022-07-28T01:09:42.393Z,51.32
2022-07-28T01:12:27.047Z,51.37
2022-07-28T01:15:03.795Z,51.56
2022-07-28T01:17:40.111Z,51.60
2022-07-28T01:20:16.150Z,51.56
2022-07-28T01:23:05.926Z,51.96
2022-07-28T01:26:03.312Z,52.01
2022-07-28T01:28:49.838Z,52.40
2022-07-28T01:31:20.222Z,52.38
2022-07-28T01:33:53.358Z,52.57
2022-07-28T01:36:30.879Z,52.93
2022-07-28T01:38:58.554Z,53.02
2022-07-28T01:41:27.769Z,53.14
2022-07-28T01:44:00.855Z,53.27
2022-07-28T01:46:27.661Z,53.22
2022-07-28T01:48:55.129Z,53.41
2022-07-28T01:51:23.760Z,53.63
2022-07-28T01:53:51.788Z,53.66
2022-07-28T01:56:19.436Z,53.79
2022-07-28T01:58:47.390Z,53.96
2022-07-28T02:01:14.908Z,54.00
2022-07-28T02:03:41.570Z,54.09
2022-07-28T02:06:08.802Z,53.99
2022-07-28T02:08:36.449Z,54.35
2022-07-28T02:11:21.649Z,54.04
2022-07-28T02:13:49.324Z,54.02
2022-07-28T02:16:17.394Z,54.11
2022-07-28T02:18:45.321Z,54.15
2022-07-28T02:21:11.964Z,54.23
2022-07-28T02:23:39.266Z,54.74
2022-07-28T02:26:09.349Z,54.37
2022-07-28T02:28:36.393Z,54.40
2022-07-28T02:31:09.607Z,54.39
2022-07-28T02:33:58.618Z,54.47
2022-07-28T02:36:38.054Z,54.49
2022-07-28T02:39:17.245Z,54.51
2022-07-28T02:41:44.252Z,54.45
2022-07-28T02:44:15.520Z,54.49
2022-07-28T02:46:44.828Z,54.65
2022-07-28T02:49:14.361Z,54.80
2022-07-28T02:51:42.517Z,54.57
2022-07-28T02:54:10.529Z,54.65
2022-07-28T02:56:37.467Z,54.58
2022-07-28T02:59:04.174Z,54.80
2022-07-28T03:01:30.967Z,54.74
2022-07-28T03:03:58.829Z,54.73
2022-07-28T03:06:28.566Z,54.76
2022-07-28T03:08:56.594Z,54.88
2022-07-28T03:11:23.072Z,54.84
2022-07-28T03:13:49.506Z,55.01
2022-07-28T03:16:16.031Z,54.81
2022-07-28T03:18:42.526Z,54.86
2022-07-28T03:21:08.982Z,54.97
2022-07-28T03:23:39.837Z,55.26
2022-07-28T03:26:12.311Z,55.30
2022-07-28T03:28:38.922Z,55.69
2022-07-28T03:31:09.082Z,55.72
2022-07-28T03:33:35.610Z,55.90
2022-07-28T03:36:07.218Z,56.18
2022-07-28T03:38:37.662Z,56.54
2022-07-28T03:41:04.975Z,56.96
2022-07-28T03:43:31.601Z,57.23
2022-07-28T03:45:58.076Z,57.26
2022-07-28T03:48:31.355Z,57.54
2022-07-28T03:50:58.697Z,57.54
2022-07-28T03:53:26.993Z,57.53
2022-07-28T03:55:53.885Z,57.59
2022-07-28T03:58:22.458Z,57.90
2022-07-28T04:00:53.238Z,57.82
2022-07-28T04:03:35.943Z,57.88
2022-07-28T04:06:06.909Z,58.41
2022-07-28T04:08:33.388Z,58.30
2022-07-28T04:10:59.842Z,58.48
2022-07-28T04:13:26.301Z,58.43
2022-07-28T04:15:52.739Z,58.21
2022-07-28T04:18:19.538Z,58.38
2022-07-28T04:20:45.996Z,58.60
2022-07-28T04:23:12.447Z,58.60
2022-07-28T04:25:38.979Z,58.67
2022-07-28T04:28:06.622Z,58.53
2022-07-28T04:30:33.140Z,58.40
2022-07-28T04:32:59.593Z,58.65
2022-07-28T04:35:27.261Z,58.70
2022-07-28T04:37:58.273Z,58.77
2022-07-28T04:40:25.677Z,58.57
2022-07-28T04:42:52.161Z,58.31
2022-07-28T04:45:18.765Z,58.38
2022-07-28T04:47:45.190Z,58.67
2022-07-28T04:50:15.145Z,58.46
2022-07-28T04:52:42.056Z,58.17
2022-07-28T04:55:08.792Z,57.93
2022-07-28T04:57:35.492Z,58.35
2022-07-28T05:00:05.035Z,58.34
2022-07-28T05:02:31.474Z,58.05
2022-07-28T05:04:57.937Z,58.10
2022-07-28T05:07:24.407Z,58.26
2022-07-28T05:09:50.847Z,57.84
2022-07-28T05:12:17.295Z,58.10
2022-07-28T05:14:43.762Z,57.81
2022-07-28T05:17:10.188Z,58.52
2022-07-28T05:19:36.824Z,60.09
2022-07-28T05:22:03.381Z,58.73
2022-07-28T05:24:29.814Z,58.78
2022-07-28T05:26:56.309Z,58.80
2022-07-28T05:29:22.877Z,58.76
2022-07-28T05:31:49.361Z,59.10
2022-07-28T05:34:16.151Z,59.02
2022-07-28T05:36:43.753Z,58.83
2022-07-28T05:39:10.194Z,58.65
2022-07-28T05:41:36.623Z,58.55
2022-07-28T05:44:03.088Z,58.18
2022-07-28T05:46:29.542Z,57.88
2022-07-28T05:48:56.073Z,58.00
2022-07-28T05:51:22.517Z,57.36
2022-07-28T05:53:49.109Z,57.12
2022-07-28T05:56:15.562Z,57.22
2022-07-28T05:58:42.010Z,57.69
2022-07-28T06:01:08.653Z,57.85
2022-07-28T06:03:41.425Z,57.37
2022-07-28T06:06:15.019Z,56.75
2022-07-28T06:08:44.072Z,56.90
2022-07-28T06:11:11.601Z,56.81
2022-07-28T06:13:39.430Z,56.75
2022-07-28T06:16:12.618Z,56.66
2022-07-28T06:18:39.711Z,56.58
2022-07-28T06:21:06.192Z,56.34
2022-07-28T06:23:32.645Z,56.11
2022-07-28T06:25:59.092Z,56.36
2022-07-28T06:28:25.533Z,56.26
2022-07-28T06:30:52.234Z,56.10
2022-07-28T06:33:18.755Z,56.03
2022-07-28T06:35:48.368Z,56.18
2022-07-28T06:38:19.508Z,55.69
2022-07-28T06:40:46.274Z,55.78
2022-07-28T06:43:14.438Z,55.50
2022-07-28T06:45:40.982Z,55.27
2022-07-28T06:48:08.137Z,55.43
2022-07-28T06:50:34.652Z,55.21
2022-07-28T06:53:01.692Z,55.04
2022-07-28T06:55:31.330Z,54.53
2022-07-28T06:58:02.997Z,54.21
2022-07-28T07:00:29.633Z,52.63
2022-07-28T07:02:56.205Z,52.65
2022-07-28T07:05:22.858Z,52.82
2022-07-28T07:07:49.341Z,52.40
2022-07-28T07:10:15.849Z,52.19
2022-07-28T07:12:42.292Z,51.92
2022-07-28T07:15:09.378Z,51.96
2022-07-28T07:17:37.512Z,51.85
2022-07-28T07:20:06.125Z,51.68
2022-07-28T07:22:32.627Z,52.25
2022-07-28T07:25:07.770Z,51.65
2022-07-28T07:27:34.217Z,51.81
2022-07-28T07:30:00.657Z,51.21
2022-07-28T07:32:27.151Z,50.98
2022-07-28T07:34:53.601Z,50.92
2022-07-28T07:37:21.204Z,50.35
2022-07-28T07:39:47.795Z,50.83
2022-07-28T07:42:14.290Z,50.60
2022-07-28T07:44:40.726Z,50.40
2022-07-28T07:47:16.455Z,49.94
2022-07-28T07:49:46.047Z,49.45
2022-07-28T07:52:13.547Z,49.01
2022-07-28T07:54:40.249Z,49.45
2022-07-28T07:57:06.704Z,48.65
2022-07-28T07:59:33.159Z,49.00
2022-07-28T08:02:00.170Z,48.41
2022-07-28T08:04:26.872Z,48.13
2022-07-28T08:06:55.392Z,48.13
2022-07-28T08:09:22.650Z,48.46
2022-07-28T08:11:49.103Z,47.86
2022-07-28T08:14:15.930Z,48.10
2022-07-28T08:16:42.743Z,47.58
2022-07-28T08:19:09.255Z,47.34
2022-07-28T08:21:38.128Z,47.35
2022-07-28T08:24:04.880Z,46.62
2022-07-28T08:26:31.412Z,46.31
2022-07-28T08:28:57.878Z,46.41
2022-07-28T08:31:24.392Z,46.00
2022-07-28T08:33:53.644Z,45.26
2022-07-28T08:36:21.356Z,45.53
2022-07-28T08:38:47.805Z,45.24
2022-07-28T08:41:20.691Z,45.29
2022-07-28T08:43:47.748Z,45.24
2022-07-28T08:46:14.896Z,45.14
2022-07-28T08:48:43.634Z,45.35
2022-07-28T08:51:11.701Z,44.80
2022-07-28T08:53:39.509Z,44.87
2022-07-28T08:56:08.364Z,44.73
2022-07-28T08:58:37.030Z,43.76
2022-07-28T09:01:04.726Z,43.92
2022-07-28T09:03:31.327Z,43.27
2022-07-28T09:05:58.087Z,42.53
2022-07-28T09:08:24.830Z,43.67
2022-07-28T09:10:51.526Z,43.45
2022-07-28T09:13:18.326Z,43.65
2022-07-28T09:15:48.732Z,43.85
2022-07-28T09:18:16.686Z,43.18
2022-07-28T09:20:43.997Z,42.92
2022-07-28T09:23:42.048Z,42.98
2022-07-28T09:26:11.384Z,42.77
2022-07-28T09:28:55.070Z,42.56
2022-07-28T09:31:22.891Z,42.89
2022-07-28T09:34:00.939Z,43.09
2022-07-28T09:36:29.086Z,42.57
2022-07-28T09:38:56.751Z,41.89
2022-07-28T09:41:23.494Z,42.31
2022-07-28T09:43:54.752Z,42.09
2022-07-28T09:46:23.909Z,41.80
2022-07-28T09:48:52.409Z,41.87
2022-07-28T09:51:39.321Z,41.69
2022-07-28T09:54:08.893Z,42.06
2022-07-28T09:56:35.437Z,42.00
2022-07-28T09:59:03.518Z,41.34
2022-07-28T10:01:35.175Z,41.56
2022-07-28T10:04:03.808Z,41.32
2022-07-28T10:06:32.109Z,41.05
2022-07-28T10:09:00.671Z,40.88
2022-07-28T10:11:28.677Z,40.77
2022-07-28T10:13:56.192Z,40.87
2022-07-28T10:16:28.301Z,41.10
2022-07-28T10:18:56.732Z,41.06
2022-07-28T10:21:24.265Z,41.15
2022-07-28T10:23:52.027Z,40.74
2022-07-28T10:26:21.519Z,40.48
2022-07-28T10:28:50.355Z,40.67
2022-07-28T10:31:29.592Z,40.54
2022-07-28T10:33:58.485Z,40.16
2022-07-28T10:36:26.247Z,40.58
2022-07-28T10:38:59.945Z,40.15
2022-07-28T10:41:31.503Z,39.63
2022-07-28T10:43:57.998Z,39.75
2022-07-28T10:46:25.686Z,39.35
2022-07-28T10:48:52.806Z,39.35
2022-07-28T10:51:21.257Z,38.84
2022-07-28T10:53:54.554Z,39.15
2022-07-28T10:56:38.820Z,39.36
2022-07-28T10:59:14.533Z,39.39
2022-07-28T11:01:50.150Z,38.51
2022-07-28T11:04:46.053Z,38.77
2022-07-28T11:07:20.619Z,38.12
2022-07-28T11:09:49.928Z,38.26
2022-07-28T11:12:16.749Z,38.28
2022-07-28T11:14:43.743Z,37.69
2022-07-28T11:17:13.420Z,37.61
2022-07-28T11:22:33.885Z,36.82
2022-07-28T11:25:18.666Z,37.02
2022-07-28T11:27:51.147Z,37.34
2022-07-28T11:30:36.464Z,37.34
2022-07-28T11:33:04.747Z,37.86
2022-07-28T11:35:41.142Z,37.28
2022-07-28T11:38:09.379Z,37.56
2022-07-28T11:40:40.130Z,37.16
2022-07-28T11:43:35.415Z,36.68
2022-07-28T11:46:10.253Z,36.40
2022-07-28T11:48:39.454Z,36.32
2022-07-28T11:51:05.940Z,36.61
2022-07-28T11:53:36.775Z,36.80
2022-07-28T11:56:04.959Z,36.80
2022-07-28T11:58:31.386Z,36.22
2022-07-28T12:01:17.410Z,36.28
2022-07-28T12:03:50.023Z,36.37
2022-07-28T12:06:28.397Z,35.97
2022-07-28T12:09:02.247Z,36.55
2022-07-28T12:11:32.881Z,35.96
2022-07-28T12:14:06.286Z,36.67
2022-07-28T12:16:35.008Z,36.25
2022-07-28T12:19:01.985Z,36.07
2022-07-28T12:21:49.096Z,35.32
2022-07-28T12:24:18.816Z,35.43
2022-07-28T12:26:49.143Z,35.80
2022-07-28T12:29:16.806Z,35.71
2022-07-28T12:31:59.007Z,34.98
2022-07-28T12:34:28.711Z,34.73
2022-07-28T12:36:59.357Z,34.78
2022-07-28T12:39:26.048Z,35.64
2022-07-28T12:42:04.307Z,34.57
2022-07-28T12:44:35.654Z,34.68
2022-07-28T12:47:02.790Z,34.50
2022-07-28T12:49:29.289Z,34.38
2022-07-28T12:51:55.878Z,34.67
2022-07-28T12:54:34.849Z,34.03
2022-07-28T12:57:01.314Z,33.11
2022-07-28T12:59:32.419Z,33.26
2022-07-28T13:01:59.047Z,32.58
2022-07-28T13:04:42.599Z,33.01
2022-07-28T13:07:22.037Z,33.14
2022-07-28T13:10:12.458Z,33.29
2022-07-28T13:12:39.287Z,32.70
2022-07-28T13:15:14.977Z,32.62
2022-07-28T13:17:49.675Z,32.99
2022-07-28T13:20:16.175Z,32.89
2022-07-28T13:22:45.526Z,32.64
2022-07-28T13:25:12.326Z,32.96
2022-07-28T13:27:38.978Z,32.83
2022-07-28T13:30:06.174Z,32.69
2022-07-28T13:32:33.969Z,32.47
2022-07-28T13:35:00.774Z,32.61
2022-07-28T13:37:29.494Z,32.53
2022-07-28T13:39:55.985Z,32.24
2022-07-28T13:42:23.600Z,32.35
2022-07-28T13:44:50.498Z,31.54
2022-07-28T13:47:17.805Z,31.66
2022-07-28T13:49:44.241Z,31.42
2022-07-28T13:52:17.066Z,31.46
2022-07-28T13:54:55.993Z,31.60
2022-07-28T13:57:22.447Z,31.28
2022-07-28T13:59:49.004Z,31.76
2022-07-28T14:02:16.341Z,31.97
2022-07-28T14:04:45.859Z,31.49
2022-07-28T14:07:20.651Z,31.44
2022-07-28T14:09:47.839Z,31.56
2022-07-28T14:12:14.331Z,30.99
2022-07-28T14:14:40.783Z,31.34
2022-07-28T14:17:42.852Z,31.16
2022-07-28T14:20:01.171Z,31.52
2022-07-28T14:22:27.758Z,31.71
2022-07-28T14:24:54.196Z,31.80
2022-07-28T14:27:22.048Z,30.99
2022-07-28T14:29:51.147Z,31.14
2022-07-28T14:32:17.568Z,31.34
2022-07-28T14:34:44.014Z,31.31
2022-07-28T14:37:11.382Z,31.36
2022-07-28T14:39:38.268Z,30.91
2022-07-28T14:42:05.761Z,30.80
2022-07-28T14:44:32.687Z,30.08
2022-07-28T14:46:59.224Z,30.51
2022-07-28T14:49:25.830Z,30.53
2022-07-28T14:51:52.577Z,30.31
2022-07-28T14:54:19.537Z,30.47
2022-07-28T14:56:46.152Z,30.45
2022-07-28T14:59:12.635Z,30.19
2022-07-28T15:01:39.138Z,29.67
2022-07-28T15:04:05.777Z,29.80
2022-07-28T15:06:32.214Z,30.29
2022-07-28T15:08:58.707Z,30.10
2022-07-28T15:11:25.892Z,29.74
2022-07-28T15:13:52.344Z,30.03
2022-07-28T15:16:18.907Z,29.61
2022-07-28T15:18:45.390Z,29.95
2022-07-28T15:21:18.043Z,29.96
2022-07-28T15:23:44.712Z,29.81
2022-07-28T15:26:11.393Z,29.59
2022-07-28T15:28:38.326Z,29.69
2022-07-28T15:31:06.728Z,29.83
2022-07-28T15:33:38.927Z,29.68
2022-07-28T15:36:14.391Z,29.52
2022-07-28T15:38:40.846Z,29.01
2022-07-28T15:41:07.467Z,28.06
2022-07-28T15:43:33.943Z,28.90
2022-07-28T15:46:03.715Z,28.24
2022-07-28T15:48:30.251Z,28.56
2022-07-28T15:50:57.645Z,28.35
2022-07-28T15:53:24.085Z,28.65
2022-07-28T15:55:51.888Z,28.98
2022-07-28T15:58:19.417Z,27.79
2022-07-28T16:00:46.073Z,27.69
2022-07-28T16:03:12.885Z,28.37
2022-07-28T16:05:39.626Z,28.15
2022-07-28T16:08:06.151Z,27.61
2022-07-28T16:10:32.619Z,28.13
2022-07-28T16:12:59.042Z,28.19
2022-07-28T16:15:26.923Z,28.20
2022-07-28T16:17:54.279Z,27.81
2022-07-28T16:20:20.766Z,27.90
2022-07-28T16:22:47.234Z,27.09
2022-07-28T16:25:16.904Z,26.66
2022-07-28T16:27:44.561Z,26.53
2022-07-28T16:30:11.651Z,26.38
2022-07-28T16:32:38.821Z,26.62
2022-07-28T16:35:06.632Z,25.62
2022-07-28T16:37:33.723Z,23.69
2022-07-28T16:40:00.203Z,22.59
2022-07-28T16:42:26.660Z,21.27
2022-07-28T16:44:53.103Z,20.83
2022-07-28T16:47:19.559Z,20.11
2022-07-28T16:49:46.488Z,19.30
2022-07-28T16:52:13.869Z,19.13
2022-07-28T16:54:40.333Z,19.62
2022-07-28T16:57:07.296Z,19.72
2022-07-28T16:59:37.592Z,19.40
2022-07-28T17:02:14.460Z,19.06
2022-07-28T17:04:40.942Z,18.65
2022-07-28T17:07:08.226Z,18.89
2022-07-28T17:09:34.680Z,19.75
2022-07-28T17:12:01.118Z,20.09
2022-07-28T17:14:27.564Z,20.28
2022-07-28T17:16:53.993Z,21.00
2022-07-28T17:19:21.974Z,21.13
2022-07-28T17:21:48.594Z,21.39
2022-07-28T17:24:15.406Z,21.33
2022-07-28T17:29:28.696Z,21.95
2022-07-28T17:31:55.251Z,22.19
2022-07-28T17:34:21.670Z,23.04
2022-07-28T17:36:48.188Z,23.36
2022-07-28T17:39:14.810Z,24.02
2022-07-28T17:41:41.649Z,24.21
2022-07-28T17:44:08.112Z,24.76
2022-07-28T17:46:37.874Z,25.19
2022-07-28T17:49:05.643Z,25.63
2022-07-28T17:51:32.298Z,25.77
2022-07-28T17:53:58.821Z,25.77
2022-07-28T17:56:25.582Z,26.29
2022-07-28T17:58:52.297Z,26.70
2022-07-28T18:01:18.815Z,26.79
2022-07-28T18:03:58.692Z,26.70
2022-07-28T18:06:28.330Z,26.68
2022-07-28T18:08:54.778Z,27.24
2022-07-28T18:11:21.278Z,27.50
2022-07-28T18:14:04.280Z,27.58
2022-07-28T18:16:33.976Z,28.17
2022-07-28T18:19:00.520Z,28.20
2022-07-28T18:21:27.003Z,28.74
2022-07-28T18:23:54.842Z,28.85
2022-07-28T18:26:22.062Z,28.91
2022-07-28T18:28:48.748Z,29.37
2022-07-28T18:31:15.249Z,29.40
2022-07-28T18:33:41.756Z,29.62
2022-07-28T18:36:08.224Z,29.72
2022-07-28T18:38:34.653Z,30.17
2022-07-28T18:41:01.164Z,30.40
2022-07-28T18:43:28.578Z,30.32
2022-07-28T18:45:55.111Z,30.52
2022-07-28T18:48:21.607Z,30.72
2022-07-28T18:50:48.065Z,30.52
2022-07-28T18:53:14.513Z,30.59
2022-07-28T18:55:41.008Z,30.70
2022-07-28T18:58:07.496Z,30.98
2022-07-28T19:00:33.951Z,31.35
2022-07-28T19:03:01.435Z,31.52
2022-07-28T19:05:27.991Z,31.74
2022-07-28T19:08:03.757Z,31.72
2022-07-28T19:10:30.253Z,31.99
2022-07-28T19:12:58.151Z,32.05
2022-07-28T19:15:24.666Z,32.39
2022-07-28T19:18:09.971Z,32.81
2022-07-28T19:20:39.086Z,32.78
2022-07-28T19:23:06.021Z,33.25
2022-07-28T19:25:32.752Z,33.23
2022-07-28T19:27:59.189Z,33.63
2022-07-28T19:30:25.639Z,33.66
2022-07-28T19:32:52.086Z,33.80
2022-07-28T19:35:19.071Z,34.22
2022-07-28T19:37:45.562Z,34.49
2022-07-28T19:40:12.139Z,34.46
2022-07-28T19:42:38.668Z,34.48
2022-07-28T19:45:06.148Z,34.96
2022-07-28T19:47:32.651Z,35.25
2022-07-28T19:50:04.878Z,35.47
2022-07-28T19:52:31.357Z,34.90
2022-07-28T19:54:57.838Z,35.61
2022-07-28T19:57:24.835Z,35.64
2022-07-28T19:59:51.296Z,35.75
2022-07-28T20:02:17.824Z,36.04
2022-07-28T20:04:44.400Z,36.08
2022-07-28T20:07:10.885Z,36.33
2022-07-28T20:09:37.371Z,36.43
2022-07-28T20:12:04.023Z,36.49
2022-07-28T20:14:34.187Z,36.65
2022-07-28T20:17:00.754Z,36.85
2022-07-28T20:19:27.244Z,36.88
2022-07-28T20:21:53.718Z,37.15
2022-07-28T20:24:20.984Z,37.21
2022-07-28T20:26:47.422Z,37.12
2022-07-28T20:29:13.859Z,37.49
2022-07-28T20:31:40.320Z,37.56
2022-07-28T20:34:06.993Z,38.02
2022-07-28T20:36:34.426Z,38.02
2022-07-28T20:39:00.945Z,37.87
2022-07-28T20:41:27.373Z,38.08
2022-07-28T20:44:18.560Z,38.12
2022-07-28T20:46:40.660Z,38.03
2022-07-28T20:49:07.192Z,38.24
2022-07-28T20:51:33.658Z,38.26
2022-07-28T20:54:00.127Z,38.51
2022-07-28T20:56:26.588Z,38.41
2022-07-28T20:58:53.049Z,38.52
2022-07-28T21:01:23.297Z,38.66
2022-07-28T21:03:49.874Z,38.99
2022-07-28T21:06:16.302Z,39.03
2022-07-28T21:08:44.749Z,38.91
2022-07-28T21:11:11.713Z,39.32
2022-07-28T21:13:38.156Z,39.43
2022-07-28T21:16:04.806Z,39.33
2022-07-28T21:18:31.241Z,38.97
2022-07-28T21:20:59.532Z,38.94
2022-07-28T21:23:25.977Z,39.10
2022-07-28T21:25:52.521Z,39.13
2022-07-28T21:28:37.632Z,39.63
2022-07-28T21:31:04.084Z,39.26
2022-07-28T21:33:30.675Z,39.12
2022-07-28T21:35:57.279Z,39.46
2022-07-28T21:38:24.720Z,39.46
2022-07-28T21:40:51.172Z,39.40
2022-07-28T21:43:17.626Z,39.39
2022-07-28T21:45:45.518Z,39.25
2022-07-28T21:48:12.633Z,39.48
2022-07-28T21:50:39.133Z,39.42
2022-07-28T21:53:05.571Z,39.52
2022-07-28T21:55:32.302Z,39.45
2022-07-28T21:57:58.731Z,39.27
2022-07-28T22:00:25.382Z,39.34
2022-07-28T22:02:51.862Z,39.31
2022-07-28T22:05:18.696Z,39.31
2022-07-28T22:07:45.214Z,39.31
2022-07-28T22:10:11.761Z,39.38
2022-07-28T22:12:39.211Z,39.51
2022-07-28T22:15:06.206Z,39.77
2022-07-28T22:17:32.652Z,39.47
2022-07-28T22:19:59.082Z,39.85
2022-07-28T22:22:25.522Z,39.78
2022-07-28T22:24:51.957Z,39.66
2022-07-28T22:27:18.409Z,39.75
2022-07-28T22:29:51.708Z,40.15
2022-07-28T22:32:18.922Z,40.11
2022-07-28T22:34:55.764Z,40.40
2022-07-28T22:37:22.186Z,40.36
2022-07-28T22:39:48.629Z,40.39
2022-07-28T22:42:15.059Z,40.64
2022-07-28T22:44:41.503Z,41.21
2022-07-28T22:47:07.980Z,41.43
2022-07-28T22:49:34.434Z,41.71
2022-07-28T22:52:00.884Z,41.84
2022-07-28T22:54:27.330Z,41.80
2022-07-28T22:56:53.751Z,41.92
2022-07-28T22:59:20.206Z,42.29
2022-07-28T23:01:47.942Z,42.42
2022-07-28T23:04:14.772Z,42.46
2022-07-28T23:06:42.051Z,42.75
2022-07-28T23:09:08.520Z,42.55
2022-07-28T23:11:35.124Z,42.77
2022-07-28T23:14:01.580Z,42.90
2022-07-28T23:16:28.097Z,43.08
2022-07-28T23:18:54.761Z,43.01
2022-07-28T23:21:21.499Z,43.25
2022-07-28T23:23:47.939Z,43.18
2022-07-28T23:26:14.387Z,43.39
2022-07-28T23:28:40.867Z,43.35
2022-07-28T23:31:07.408Z,43.49
2022-07-28T23:33:55.611Z,43.65
2022-07-28T23:36:27.116Z,43.93
2022-07-28T23:38:55.854Z,43.86
2022-07-28T23:41:22.290Z,44.18
2022-07-28T23:43:48.726Z,44.21
2022-07-28T23:46:15.213Z,44.30
2022-07-28T23:48:42.456Z,44.62
2022-07-28T23:51:09.572Z,44.62
2022-07-28T23:53:37.434Z,44.62
2022-07-28T23:56:04.005Z,44.79
2022-07-28T23:58:30.455Z,45.05
